createdAt,value
2019-01-25T01:47:24.801Z,54.37
2019-01-25T01:49:53.048Z,60.23
2019-01-25T01:52:20.934Z,58.10
2019-01-25T01:54:48.888Z,56.60
2019-01-25T01:57:16.939Z,57.73
2019-01-25T01:59:45.043Z,57.73
2019-01-25T02:02:13.019Z,57.70
2019-01-25T02:04:41.032Z,55.97
2019-01-25T02:07:09.131Z,69.07
2019-01-25T02:09:37.080Z,68.30
2019-01-25T02:12:05.102Z,57.90
2019-01-25T02:14:33.052Z,62.10
2019-01-25T02:17:01.009Z,63.83
2019-01-25T02:19:28.927Z,65.60
2019-01-25T02:21:56.823Z,56.73
2019-01-25T02:24:24.801Z,58.57
2019-01-25T02:26:52.690Z,63.70
2019-01-25T02:29:21.412Z,54.73
2019-01-25T02:31:50.805Z,66.73
2019-01-25T02:34:18.952Z,63.47
2019-01-25T02:36:46.941Z,57.73
2019-01-25T02:39:14.870Z,59.70
2019-01-25T02:41:42.849Z,61.87
2019-01-25T02:44:10.799Z,60.90
2019-01-25T02:46:39.053Z,58.90
2019-01-25T02:49:07.274Z,59.43
2019-01-25T02:51:35.318Z,57.77
2019-01-25T02:54:03.265Z,58.63
2019-01-25T02:56:31.190Z,61.60
2019-01-25T02:58:59.459Z,57.80
2019-01-25T03:01:27.423Z,61.07
2019-01-25T03:03:55.596Z,57.03
2019-01-25T03:06:24.011Z,62.17
2019-01-25T03:08:51.967Z,55.40
2019-01-25T03:11:19.988Z,56.43
2019-01-25T03:13:47.912Z,58.00
2019-01-25T03:16:16.112Z,56.00
2019-01-25T03:18:44.027Z,59.73
2019-01-25T03:21:12.256Z,64.03
2019-01-25T03:23:40.398Z,57.00
2019-01-25T03:26:08.546Z,63.70
2019-01-25T03:28:36.626Z,59.13
2019-01-25T03:31:04.667Z,57.07
2019-01-25T03:33:32.941Z,65.57
2019-01-25T03:36:01.337Z,63.13
2019-01-25T03:38:29.422Z,65.47
2019-01-25T03:40:58.081Z,60.33
2019-01-25T03:43:26.405Z,58.97
2019-01-25T03:45:54.310Z,62.67
2019-01-25T03:48:22.633Z,62.00
2019-01-25T03:50:50.726Z,58.50
2019-01-25T03:53:19.363Z,61.60
2019-01-25T03:55:47.354Z,59.27
2019-01-25T03:58:16.199Z,69.50
2019-01-25T04:00:44.425Z,67.30
2019-01-25T04:03:12.530Z,69.67
2019-01-25T04:05:40.689Z,62.83
2019-01-25T04:08:08.773Z,59.67
2019-01-25T04:10:37.046Z,64.13
2019-01-25T04:13:05.458Z,64.50
2019-01-25T04:15:34.375Z,65.03
2019-01-25T04:18:02.666Z,66.97
2019-01-25T04:20:30.859Z,73.00
2019-01-25T04:22:58.833Z,70.37
2019-01-25T04:25:26.729Z,68.23
2019-01-25T04:27:54.644Z,60.10
2019-01-25T04:30:26.460Z,65.80
2019-01-25T04:32:54.392Z,62.90
2019-01-25T04:35:22.306Z,65.73
2019-01-25T04:37:50.177Z,62.73
2019-01-25T04:40:18.419Z,69.60
2019-01-25T04:42:46.374Z,62.13
2019-01-25T04:45:15.289Z,63.57
2019-01-25T04:47:43.316Z,60.83
2019-01-25T04:50:13.119Z,63.57
2019-01-25T04:52:41.409Z,66.57
2019-01-25T04:55:12.122Z,61.40
2019-01-25T04:57:39.987Z,63.20
2019-01-25T05:00:08.732Z,63.97
2019-01-25T05:02:36.639Z,70.03
2019-01-25T05:05:05.325Z,60.33
2019-01-25T05:07:33.328Z,60.63
2019-01-25T05:10:01.268Z,65.77
2019-01-25T05:12:29.140Z,61.20
2019-01-25T05:14:57.057Z,59.90
2019-01-25T05:17:24.967Z,69.03
2019-01-25T05:19:52.939Z,62.43
2019-01-25T05:22:21.088Z,60.80
2019-01-25T05:24:49.125Z,63.80
2019-01-25T05:27:17.051Z,64.30
2019-01-25T05:29:52.531Z,61.13
2019-01-25T05:32:20.488Z,57.90
2019-01-25T05:34:48.462Z,57.13
2019-01-25T05:37:16.365Z,57.20
2019-01-25T05:39:44.250Z,61.03
2019-01-25T05:42:12.146Z,65.37
2019-01-25T05:44:40.072Z,60.37
2019-01-25T05:47:08.884Z,60.63
2019-01-25T05:49:36.798Z,54.43
2019-01-25T05:52:05.493Z,57.40
2019-01-25T05:54:33.401Z,50.67
2019-01-25T05:57:01.549Z,53.57
2019-01-25T05:59:29.440Z,54.10
2019-01-25T06:01:57.443Z,57.03
2019-01-25T06:04:29.446Z,57.63
2019-01-25T06:06:57.598Z,56.47
2019-01-25T06:09:25.638Z,55.73
2019-01-25T06:11:53.645Z,50.33
2019-01-25T06:14:21.717Z,55.50
2019-01-25T06:16:49.946Z,56.50
2019-01-25T06:19:18.049Z,53.93
2019-01-25T06:21:46.062Z,52.97
2019-01-25T06:24:13.948Z,53.40
2019-01-25T06:26:44.319Z,53.43
2019-01-25T06:29:12.347Z,48.13
2019-01-25T06:31:40.342Z,52.27
2019-01-25T06:34:08.266Z,57.93
2019-01-25T06:36:36.155Z,52.33
2019-01-25T06:39:06.111Z,50.23
2019-01-25T06:41:34.351Z,50.03
2019-01-25T06:44:02.329Z,49.83
2019-01-25T06:46:30.374Z,53.30
2019-01-25T06:48:58.301Z,48.20
2019-01-25T06:51:26.194Z,52.83
2019-01-25T06:53:54.076Z,48.30
2019-01-25T06:56:21.966Z,48.80
2019-01-25T06:59:17.863Z,50.43
2019-01-25T07:02:10.737Z,51.57
2019-01-25T07:04:38.683Z,48.47
2019-01-25T07:07:10.545Z,47.97
2019-01-25T07:09:38.527Z,45.93
2019-01-25T07:12:06.730Z,44.10
2019-01-25T07:14:34.618Z,41.33
2019-01-25T07:17:02.507Z,42.37
2019-01-25T07:19:30.378Z,50.47
2019-01-25T07:21:58.282Z,45.90
2019-01-25T07:24:26.453Z,49.00
2019-01-25T07:26:54.461Z,47.83
2019-01-25T07:29:22.622Z,44.93
2019-01-25T07:31:50.607Z,43.00
2019-01-25T07:34:18.544Z,44.63
2019-01-25T07:36:46.601Z,38.80
2019-01-25T07:39:21.894Z,45.43
2019-01-25T07:41:49.963Z,47.03
2019-01-25T07:44:17.970Z,43.27
2019-01-25T07:46:46.035Z,41.93
2019-01-25T07:49:14.085Z,43.37
2019-01-25T07:51:42.083Z,47.77
2019-01-25T07:54:10.019Z,38.17
2019-01-25T07:56:37.885Z,43.67
2019-01-25T07:59:05.836Z,42.90
2019-01-25T08:01:33.870Z,41.77
2019-01-25T08:04:01.949Z,39.93
2019-01-25T08:06:30.024Z,40.33
2019-01-25T08:08:58.060Z,45.27
2019-01-25T08:11:26.034Z,34.50
2019-01-25T08:13:53.992Z,36.97
2019-01-25T08:16:21.888Z,40.30
2019-01-25T08:18:49.765Z,40.40
2019-01-25T08:21:17.759Z,38.90
2019-01-25T08:23:47.428Z,31.57
2019-01-25T08:26:15.660Z,37.33
2019-01-25T08:28:43.822Z,46.77
2019-01-25T08:31:11.790Z,42.50
2019-01-25T08:33:42.796Z,37.77
2019-01-25T08:36:10.760Z,39.33
2019-01-25T08:38:38.698Z,44.37
2019-01-25T08:41:07.098Z,37.10
2019-01-25T08:43:35.198Z,39.70
2019-01-25T08:46:03.196Z,43.87
2019-01-25T08:48:31.196Z,39.40
2019-01-25T08:50:59.353Z,40.53
2019-01-25T08:53:27.352Z,39.90
2019-01-25T08:55:55.268Z,41.43
2019-01-25T08:58:23.285Z,37.67
2019-01-25T09:00:51.950Z,36.60
2019-01-25T09:03:20.011Z,38.90
2019-01-25T09:05:47.898Z,46.27
2019-01-25T09:08:15.805Z,43.03
2019-01-25T09:10:43.932Z,45.23
2019-01-25T09:13:12.007Z,45.30
2019-01-25T09:15:39.998Z,41.67
2019-01-25T09:18:08.010Z,41.03
2019-01-25T09:20:36.124Z,44.20
2019-01-25T09:23:04.303Z,43.17
2019-01-25T09:25:32.731Z,45.53
2019-01-25T09:28:00.700Z,39.80
2019-01-25T09:30:28.986Z,45.20
2019-01-25T09:32:57.151Z,48.97
2019-01-25T09:35:26.142Z,45.23
2019-01-25T09:37:54.402Z,48.67
2019-01-25T09:40:23.627Z,41.77
2019-01-25T09:42:52.015Z,51.17
2019-01-25T09:45:20.080Z,42.50
2019-01-25T09:47:48.013Z,43.97
2019-01-25T09:50:16.685Z,42.90
2019-01-25T09:52:44.751Z,43.70
2019-01-25T09:55:13.944Z,48.47
2019-01-25T09:57:41.990Z,44.93
2019-01-25T10:00:13.071Z,49.40
2019-01-25T10:02:41.043Z,45.63
2019-01-25T10:05:09.070Z,47.13
2019-01-25T10:07:37.017Z,43.77
2019-01-25T10:10:05.310Z,42.97
2019-01-25T10:12:36.038Z,39.67
2019-01-25T10:15:03.300Z,42.97
2019-01-25T10:17:31.249Z,50.10
2019-01-25T10:19:59.260Z,46.80
2019-01-25T10:22:27.379Z,52.13
2019-01-25T10:24:55.357Z,46.70
2019-01-25T10:27:23.224Z,43.60
2019-01-25T10:29:51.113Z,49.20
2019-01-25T10:32:19.215Z,44.67
2019-01-25T10:34:47.161Z,46.53
2019-01-25T10:37:15.178Z,40.33
2019-01-25T10:39:43.147Z,53.40
2019-01-25T10:42:11.090Z,41.90
2019-01-25T10:44:39.088Z,44.80
2019-01-25T10:47:07.100Z,46.43
2019-01-25T10:49:35.097Z,39.13
2019-01-25T10:52:03.008Z,40.50
2019-01-25T10:54:30.949Z,48.73
2019-01-25T10:56:59.026Z,46.77
2019-01-25T10:59:27.007Z,41.30
2019-01-25T11:01:54.991Z,45.57
2019-01-25T11:04:22.978Z,39.00
2019-01-25T11:06:50.966Z,37.07
2019-01-25T11:09:18.848Z,40.90
2019-01-25T11:11:46.762Z,40.77
2019-01-25T11:14:14.689Z,45.73
2019-01-25T11:16:42.564Z,44.67
2019-01-25T11:19:10.532Z,40.00
2019-01-25T11:21:38.475Z,41.93
2019-01-25T11:24:07.823Z,43.23
2019-01-25T11:26:36.168Z,44.53
2019-01-25T11:29:04.639Z,38.73
2019-01-25T11:31:32.761Z,40.60
2019-01-25T11:34:01.823Z,42.20
2019-01-25T11:36:30.959Z,41.63
2019-01-25T11:38:58.952Z,44.70
2019-01-25T11:41:26.989Z,36.80
2019-01-25T11:43:55.000Z,47.57
2019-01-25T11:46:22.950Z,41.63
2019-01-25T11:48:50.966Z,45.30
2019-01-25T11:51:19.933Z,43.90
2019-01-25T11:53:48.063Z,42.80
2019-01-25T11:56:16.003Z,39.00
2019-01-25T11:58:43.914Z,43.23
2019-01-25T12:01:11.837Z,39.43
2019-01-25T12:03:39.875Z,40.83
2019-01-25T12:06:07.786Z,44.90
2019-01-25T12:08:35.916Z,43.73
2019-01-25T12:11:03.830Z,39.03
2019-01-25T12:13:32.538Z,43.20
2019-01-25T12:16:00.589Z,43.50
2019-01-25T12:18:28.572Z,39.90
2019-01-25T12:20:56.582Z,46.73
2019-01-25T12:23:24.753Z,40.90
2019-01-25T12:25:52.930Z,41.93
2019-01-25T12:28:20.930Z,41.40
2019-01-25T12:30:48.849Z,41.13
2019-01-25T12:33:16.820Z,46.00
2019-01-25T12:35:45.208Z,41.57
2019-01-25T12:38:13.099Z,39.30
2019-01-25T12:40:42.309Z,36.90
2019-01-25T12:43:11.338Z,41.87
2019-01-25T12:45:39.339Z,42.30
2019-01-25T12:48:07.391Z,43.20
2019-01-25T12:50:37.192Z,41.63
2019-01-25T12:53:05.591Z,42.47
2019-01-25T12:55:33.775Z,43.87
2019-01-25T12:58:01.786Z,40.87
2019-01-25T13:00:31.014Z,38.73
2019-01-25T13:02:59.143Z,39.17
2019-01-25T13:05:27.049Z,38.87
2019-01-25T13:07:54.979Z,42.63
2019-01-25T13:10:23.104Z,41.83
2019-01-25T13:12:51.100Z,43.53
2019-01-25T13:15:19.259Z,38.80
2019-01-25T13:17:47.140Z,39.43
2019-01-25T13:20:16.178Z,42.87
2019-01-25T13:22:44.120Z,42.83
2019-01-25T13:25:12.313Z,35.27
2019-01-25T13:27:40.330Z,38.57
2019-01-25T13:30:10.209Z,38.77
2019-01-25T13:32:38.451Z,42.40
2019-01-25T13:35:06.499Z,33.40
2019-01-25T13:37:34.507Z,36.57
2019-01-25T13:40:02.565Z,43.67
2019-01-25T13:42:30.420Z,42.03
2019-01-25T13:44:58.408Z,38.07
2019-01-25T13:47:26.356Z,43.40
2019-01-25T13:49:54.372Z,39.23
2019-01-25T13:52:22.293Z,39.97
2019-01-25T13:54:50.196Z,41.10
2019-01-25T13:57:18.129Z,37.67
2019-01-25T13:59:46.148Z,39.83
2019-01-25T14:02:14.374Z,41.63
2019-01-25T14:04:42.279Z,35.40
2019-01-25T14:07:10.232Z,43.40
2019-01-25T14:09:38.171Z,46.23
2019-01-25T14:12:06.144Z,37.97
2019-01-25T14:14:34.031Z,42.60
2019-01-25T14:17:02.037Z,39.57
2019-01-25T14:19:30.103Z,39.70
2019-01-25T14:21:58.073Z,39.80
2019-01-25T14:24:26.165Z,40.73
2019-01-25T14:26:54.054Z,41.70
2019-01-25T14:29:22.107Z,39.70
2019-01-25T14:31:50.015Z,42.37
2019-01-25T14:34:17.994Z,34.23
2019-01-25T14:36:45.917Z,44.07
2019-01-25T14:39:13.896Z,39.43
2019-01-25T14:41:41.757Z,41.53
2019-01-25T14:44:09.655Z,39.87
2019-01-25T14:46:37.592Z,34.70
2019-01-25T14:49:05.583Z,35.77
2019-01-25T14:51:33.502Z,38.83
2019-01-25T14:54:01.397Z,37.20
2019-01-25T14:56:29.394Z,41.67
2019-01-25T14:58:57.356Z,34.40
2019-01-25T15:01:25.252Z,35.70
2019-01-25T15:03:53.197Z,39.23
2019-01-25T15:06:21.193Z,39.87
2019-01-25T15:08:49.059Z,36.50
2019-01-25T15:11:16.951Z,34.00
2019-01-25T15:13:44.866Z,36.30
2019-01-25T15:16:15.550Z,39.33
2019-01-25T15:18:43.482Z,34.23
2019-01-25T15:21:11.453Z,35.53
2019-01-25T15:23:39.370Z,34.67
2019-01-25T15:26:07.240Z,33.60
2019-01-25T15:28:35.135Z,36.60
2019-01-25T15:31:03.228Z,35.03
2019-01-25T15:33:31.165Z,33.73
2019-01-25T15:35:59.129Z,33.50
2019-01-25T15:38:27.058Z,31.03
2019-01-25T15:40:54.959Z,36.20
2019-01-25T15:43:22.867Z,32.73
2019-01-25T15:45:50.839Z,34.70
2019-01-25T15:48:18.850Z,32.87
2019-01-25T15:50:47.135Z,36.83
2019-01-25T15:53:15.117Z,33.57
2019-01-25T15:55:43.089Z,33.67
2019-01-25T15:58:11.206Z,33.70
2019-01-25T16:00:39.148Z,36.13
2019-01-25T16:03:07.147Z,36.20
2019-01-25T16:05:35.082Z,30.87
2019-01-25T16:08:03.077Z,42.93
2019-01-25T16:10:31.013Z,34.63
2019-01-25T16:12:58.962Z,37.10
2019-01-25T16:15:31.453Z,35.40
2019-01-25T16:17:59.456Z,32.07
2019-01-25T16:20:27.414Z,33.50
2019-01-25T16:22:56.195Z,29.70
2019-01-25T16:25:25.614Z,33.10
2019-01-25T16:27:54.152Z,32.40
2019-01-25T16:30:23.499Z,32.90
2019-01-25T16:32:51.544Z,28.60
2019-01-25T16:35:19.559Z,31.37
2019-01-25T16:37:47.768Z,35.97
2019-01-25T16:40:16.683Z,29.70
2019-01-25T16:42:44.665Z,35.70
2019-01-25T16:45:14.366Z,29.63
2019-01-25T16:47:42.514Z,32.60
2019-01-25T16:50:10.995Z,33.37
2019-01-25T16:52:39.087Z,28.27
2019-01-25T16:55:07.975Z,33.93
2019-01-25T16:57:36.164Z,30.03
2019-01-25T17:00:06.146Z,31.87
2019-01-25T17:02:34.577Z,31.20
2019-01-25T17:05:03.345Z,28.37
2019-01-25T17:07:31.809Z,36.60
2019-01-25T17:10:00.095Z,31.60
2019-01-25T17:12:28.288Z,32.20
2019-01-25T17:14:56.353Z,30.60
2019-01-25T17:17:24.308Z,31.57
2019-01-25T17:19:52.524Z,28.40
2019-01-25T17:22:21.229Z,28.80
2019-01-25T17:24:49.482Z,24.60
2019-01-25T17:27:17.691Z,28.17
2019-01-25T17:29:45.907Z,26.90
2019-01-25T17:32:14.074Z,27.17
2019-01-25T17:34:43.005Z,32.50
2019-01-25T17:37:11.566Z,31.23
2019-01-25T17:39:39.962Z,27.53
2019-01-25T17:42:08.459Z,29.47
2019-01-25T17:44:41.385Z,29.13
2019-01-25T17:47:07.975Z,25.77
2019-01-25T17:49:37.833Z,30.30
2019-01-25T17:52:06.449Z,30.53
2019-01-25T17:54:35.021Z,24.13
2019-01-25T17:57:03.789Z,30.63
2019-01-25T17:59:32.398Z,25.03
2019-01-25T18:02:00.672Z,31.80
2019-01-25T18:04:29.300Z,27.03
2019-01-25T18:06:58.052Z,29.83
2019-01-25T18:09:26.389Z,26.17
2019-01-25T18:11:54.813Z,28.23
2019-01-25T18:14:22.807Z,26.27
2019-01-25T18:16:53.321Z,22.70
2019-01-25T18:19:21.371Z,27.03
2019-01-25T18:21:49.591Z,24.47
2019-01-25T18:24:17.925Z,25.40
2019-01-25T18:26:46.034Z,23.30
2019-01-25T18:29:18.989Z,28.80
2019-01-25T18:31:46.934Z,28.87
2019-01-25T18:34:14.893Z,24.57
2019-01-25T18:36:42.794Z,26.37
2019-01-25T18:39:10.821Z,24.90
2019-01-25T18:41:38.896Z,24.53
2019-01-25T18:44:07.072Z,25.73
2019-01-25T18:46:35.040Z,24.80
2019-01-25T18:49:03.186Z,23.27
2019-01-25T18:51:31.152Z,23.33
2019-01-25T18:53:59.265Z,24.33
2019-01-25T18:56:27.528Z,23.40
2019-01-25T18:58:58.571Z,25.00
2019-01-25T19:01:27.758Z,20.60
2019-01-25T19:03:56.820Z,19.90
2019-01-25T19:06:25.067Z,16.80
2019-01-25T19:08:53.547Z,20.27
2019-01-25T19:11:21.667Z,18.23
2019-01-25T19:13:50.793Z,16.57
2019-01-25T19:16:18.865Z,17.97
2019-01-25T19:18:46.992Z,17.67
2019-01-25T19:21:15.038Z,20.20
2019-01-25T19:23:43.617Z,17.80
2019-01-25T19:26:11.760Z,20.93
2019-01-25T19:28:39.729Z,18.17
2019-01-25T19:31:07.790Z,19.13
2019-01-25T19:33:35.825Z,20.00
2019-01-25T19:36:05.479Z,20.40
2019-01-25T19:38:33.936Z,20.00
2019-01-25T19:41:02.355Z,17.23
2019-01-25T19:43:31.161Z,21.47
2019-01-25T19:46:00.096Z,17.97
2019-01-25T19:48:28.396Z,17.07
2019-01-25T19:50:56.836Z,17.47
2019-01-25T19:53:25.055Z,23.10
2019-01-25T19:55:53.180Z,18.27
2019-01-25T19:58:21.798Z,19.80
2019-01-25T20:00:50.087Z,17.70
2019-01-25T20:03:18.395Z,19.53
2019-01-25T20:05:46.584Z,16.57
2019-01-25T20:08:15.256Z,20.30
2019-01-25T20:10:43.963Z,15.50
2019-01-25T20:13:12.754Z,17.73
2019-01-25T20:15:42.097Z,18.00
2019-01-25T20:18:10.280Z,15.70
2019-01-25T20:20:38.694Z,19.30
2019-01-25T20:23:07.032Z,18.90
2019-01-25T20:25:35.993Z,16.10
2019-01-25T20:28:05.053Z,20.50
2019-01-25T20:30:33.667Z,16.23
2019-01-25T20:33:03.037Z,16.13
2019-01-25T20:35:32.394Z,16.20
2019-01-25T20:38:00.412Z,22.87
2019-01-25T20:40:28.714Z,18.00
2019-01-25T20:42:57.119Z,15.80
2019-01-25T20:45:27.198Z,16.40
2019-01-25T20:47:55.571Z,17.53
2019-01-25T20:50:24.584Z,18.57
2019-01-25T20:52:52.961Z,14.50
2019-01-25T20:55:21.096Z,17.87
2019-01-25T20:57:49.130Z,17.50
2019-01-25T21:00:21.470Z,15.93
2019-01-25T21:02:49.645Z,16.53
2019-01-25T21:05:17.813Z,14.43
2019-01-25T21:07:47.243Z,15.20
2019-01-25T21:10:16.270Z,14.90
2019-01-25T21:12:44.773Z,15.53
2019-01-25T21:15:14.136Z,14.57
2019-01-25T21:17:42.438Z,13.10
2019-01-25T21:20:12.467Z,13.63
2019-01-25T21:22:43.575Z,11.90
2019-01-25T21:25:12.058Z,13.67
2019-01-25T21:27:40.536Z,13.47
2019-01-25T21:30:11.462Z,13.10
2019-01-25T21:32:39.752Z,14.73
2019-01-25T21:35:09.030Z,12.87
2019-01-25T21:37:37.327Z,11.77
2019-01-25T21:40:08.651Z,13.63
2019-01-25T21:42:36.104Z,13.00
2019-01-25T21:45:05.146Z,10.93
2019-01-25T21:47:33.464Z,13.67
2019-01-25T21:50:01.484Z,10.93
2019-01-25T21:52:29.494Z,11.67
2019-01-25T21:54:57.668Z,16.90
2019-01-25T21:57:25.698Z,12.37
2019-01-25T21:59:53.764Z,11.50
2019-01-25T22:02:21.873Z,8.90
2019-01-25T22:04:50.220Z,14.43
2019-01-25T22:07:18.242Z,11.07
2019-01-25T22:09:46.246Z,9.57
2019-01-25T22:12:14.267Z,10.87
2019-01-25T22:14:42.562Z,10.13
2019-01-25T22:17:11.555Z,14.27
2019-01-25T22:19:39.552Z,12.60
2019-01-25T22:22:07.553Z,13.77
2019-01-25T22:24:35.637Z,11.90
2019-01-25T22:27:03.977Z,13.60
2019-01-25T22:29:32.263Z,12.10
2019-01-25T22:32:00.455Z,12.63
2019-01-25T22:34:28.716Z,13.30
2019-01-25T22:36:56.834Z,11.50
2019-01-25T22:39:24.830Z,14.00
2019-01-25T22:41:55.974Z,13.77
2019-01-25T22:44:24.205Z,14.03
2019-01-25T22:46:52.600Z,13.70
2019-01-25T22:49:20.568Z,14.67
2019-01-25T22:51:50.576Z,13.90
2019-01-25T22:54:18.650Z,14.70
2019-01-25T22:56:46.612Z,11.80
2019-01-25T22:59:14.653Z,14.50
2019-01-25T23:01:42.650Z,12.47
2019-01-25T23:04:29.727Z,14.43
2019-01-25T23:07:10.687Z,13.47
2019-01-25T23:09:40.075Z,14.67
2019-01-25T23:12:08.405Z,13.50
2019-01-25T23:14:36.371Z,12.33
2019-01-25T23:17:04.663Z,15.37
2019-01-25T23:19:32.795Z,13.03
2019-01-25T23:22:01.760Z,12.10
2019-01-25T23:24:29.701Z,12.70
2019-01-25T23:26:57.727Z,13.80
2019-01-25T23:29:26.028Z,14.20
2019-01-25T23:31:53.996Z,13.97
2019-01-25T23:34:21.954Z,13.13
2019-01-25T23:36:50.042Z,14.10
2019-01-25T23:39:18.112Z,12.43
2019-01-25T23:41:46.343Z,15.43
2019-01-25T23:44:14.590Z,13.40
2019-01-25T23:46:42.572Z,15.20
2019-01-25T23:49:10.565Z,10.60
2019-01-25T23:51:38.658Z,14.80
2019-01-25T23:54:06.760Z,12.83
2019-01-25T23:56:34.721Z,13.37
2019-01-25T23:59:02.965Z,14.87
